Time;durP1;ratioP1;P1;durP2;ratioP2;P2;SDS_P1;SDS_P2;PMS_P1;PMS_P2;Temp;Humidity;BMP_temperature;BMP_pressure;BME280_temperature;BME280_humidity;BME280_pressure;Samples;Min_cycle;Max_cycle;Signal;HPM_P1;HPM_P2
2022/02/07 00:03:44;;;;;;;;;;;5.40;99.90;;;;;;8386236;28;20276;-74
2022/02/07 00:07:46;;;;;;;;;;;5.40;99.90;;;;;;8388819;28;20367;-74
2022/02/07 00:11:48;;;;;;;;;;;5.30;99.90;;;;;;8391122;28;19999;-74
2022/02/07 00:15:49;;;;;;;;;;;5.30;99.90;;;;;;8387717;28;20304;-74
2022/02/07 00:19:51;;;;;;;;;;;5.20;99.90;;;;;;8389272;28;19968;-74
2022/02/07 00:23:53;;;;;;;;;;;5.20;99.90;;;;;;8392003;28;20389;-74
2022/02/07 00:27:54;;;;;;;;;;;5.10;99.90;;;;;;8392053;28;20332;-74
2022/02/07 00:31:56;;;;;;;;;;;5.10;99.90;;;;;;8384361;28;20310;-74
2022/02/07 00:35:58;;;;;;;;;;;5.10;99.90;;;;;;8370441;28;19927;-74
2022/02/07 00:40:17;;;;;;;;;;;5.10;99.90;;;;;;8366633;28;20411;-74
2022/02/07 00:44:20;;;;;;;;;;;5.10;99.90;;;;;;8388843;28;20375;-74
2022/02/07 00:48:24;;;;;;;;;;;4.50;99.90;;;;;;8394347;28;20305;-74
2022/02/07 00:52:25;;;;;;;;;;;4.00;99.90;;;;;;8385027;28;19967;-74
2022/02/07 00:56:27;;;;;;;;;;;3.80;99.90;;;;;;8391013;28;20026;-74
2022/02/07 01:00:29;;;;;;;;;;;3.60;99.90;;;;;;8387014;28;19927;-74
2022/02/07 01:04:30;;;;;;;;;;;3.50;99.90;;;;;;8390587;28;20066;-74
2022/02/07 01:08:47;;;;;;;;;;;3.40;99.90;;;;;;8367611;28;19948;-74
2022/02/07 01:13:07;;;;;;;;;;;3.40;99.90;;;;;;8388974;28;20348;-74
2022/02/07 01:47:48;;;;;;;;;;;3.90;99.90;;;;;;8378229;28;20347;-74
2022/02/07 01:56:10;;;;;;;;;;;4.00;99.90;;;;;;8383834;28;20391;-74
2022/02/07 02:00:12;;;;;;;;;;;4.00;99.90;;;;;;8388407;28;19920;-74
2022/02/07 02:04:14;;;;;;;;;;;4.00;99.90;;;;;;8389626;28;19971;-74
2022/02/07 02:08:16;;;;;;;;;;;4.10;99.90;;;;;;8371755;28;20298;-74
2022/02/07 02:12:18;;;;;;;;;;;4.10;99.90;;;;;;8383373;28;20327;-74
2022/02/07 02:21:11;;;;;;;;;;;4.20;99.90;;;;;;8386790;28;19925;-73
2022/02/07 02:46:18;;;;;;;;;;;4.60;99.90;;;;;;8385837;28;19990;-74
2022/02/07 02:50:32;;;;;;;;;;;4.60;99.90;;;;;;8385307;28;19970;-74
2022/02/07 02:54:34;;;;;;;;;;;4.70;99.90;;;;;;8369293;28;19931;-74
2022/02/07 02:58:37;;;;;;;;;;;4.70;99.90;;;;;;8367982;28;21291;-74
2022/02/07 03:02:38;;;;;;;;;;;4.80;99.90;;;;;;8383407;28;20807;-74
2022/02/07 03:06:40;;;;;;;;;;;4.90;99.90;;;;;;8388646;28;20043;-74
2022/02/07 03:10:49;;;;;;;;;;;5.00;99.90;;;;;;8389085;28;20380;-74
2022/02/07 03:14:51;;;;;;;;;;;5.10;99.90;;;;;;8392966;28;20001;-74
2022/02/07 03:18:52;;;;;;;;;;;5.20;99.90;;;;;;8391584;28;19925;-74
2022/02/07 03:22:54;;;;;;;;;;;5.20;99.90;;;;;;8396415;28;20749;-74
2022/02/07 03:26:56;;;;;;;;;;;5.20;99.90;;;;;;8374411;28;19929;-74
2022/02/07 03:30:57;;;;;;;;;;;5.30;99.90;;;;;;8392160;28;19979;-74
2022/02/07 03:34:59;;;;;;;;;;;5.20;99.90;;;;;;8375627;28;19932;-74
2022/02/07 03:39:00;;;;;;;;;;;5.20;99.90;;;;;;8388064;28;19943;-74
2022/02/07 03:43:03;;;;;;;;;;;5.10;99.90;;;;;;8373272;28;20404;-74
2022/02/07 03:47:04;;;;;;;;;;;5.20;99.90;;;;;;8370170;28;20079;-74
2022/02/07 03:51:06;;;;;;;;;;;5.20;99.90;;;;;;8391964;28;19924;-74
2022/02/07 03:55:08;;;;;;;;;;;5.30;99.90;;;;;;8386430;28;19935;-74
2022/02/07 03:59:09;;;;;;;;;;;5.40;99.90;;;;;;8368325;28;20022;-74
2022/02/07 04:03:13;;;;;;;;;;;5.40;99.90;;;;;;8389891;28;19928;-74
2022/02/07 04:07:16;;;;;;;;;;;5.50;99.90;;;;;;8393590;28;19978;-74
2022/02/07 04:11:24;;;;;;;;;;;5.50;99.90;;;;;;8387264;28;19967;-74
2022/02/07 04:15:25;;;;;;;;;;;5.50;99.90;;;;;;8386288;28;19929;-75
2022/02/07 04:19:34;;;;;;;;;;;5.60;99.90;;;;;;8389173;28;20019;-74
2022/02/07 04:23:36;;;;;;;;;;;5.60;99.90;;;;;;8393679;28;19978;-74
2022/02/07 04:27:37;;;;;;;;;;;5.70;99.90;;;;;;8388595;28;19947;-74
2022/02/07 04:31:39;;;;;;;;;;;5.70;99.90;;;;;;8396814;28;19929;-74
2022/02/07 04:35:41;;;;;;;;;;;5.80;99.90;;;;;;8379196;28;19932;-74
2022/02/07 04:39:42;;;;;;;;;;;5.80;99.90;;;;;;8386162;28;19924;-73
2022/02/07 04:43:52;;;;;;;;;;;5.70;99.90;;;;;;8391499;28;20027;-74
2022/02/07 04:48:14;;;;;;;;;;;5.60;99.90;;;;;;8392430;28;20261;-74
2022/02/07 04:52:39;;;;;;;;;;;5.60;99.90;;;;;;8385342;28;19928;-74
2022/02/07 05:01:11;;;;;;;;;;;5.50;99.90;;;;;;8382637;28;19971;-74
2022/02/07 05:13:44;;;;;;;;;;;5.50;99.90;;;;;;8387335;28;19947;-74
2022/02/07 05:14:01;;;;;;;;;;;5.60;99.90;;;;;;8371291;28;20292;-74
2022/02/07 05:18:03;;;;;;;;;;;5.50;99.90;;;;;;8388193;28;20027;-73
2022/02/07 05:22:04;;;;;;;;;;;5.50;99.90;;;;;;8388206;28;19931;-73
2022/02/07 05:26:06;;;;;;;;;;;5.50;99.90;;;;;;8377613;28;19968;-74
2022/02/07 05:30:08;;;;;;;;;;;5.50;99.90;;;;;;8375519;28;19924;-74
2022/02/07 05:34:10;;;;;;;;;;;5.50;99.90;;;;;;8397026;28;19924;-74
2022/02/07 05:38:11;;;;;;;;;;;5.50;99.90;;;;;;8367929;28;20018;-74
2022/02/07 05:42:13;;;;;;;;;;;5.60;99.90;;;;;;8392453;28;19924;-74
2022/02/07 05:46:15;;;;;;;;;;;5.60;99.90;;;;;;8373821;28;19959;-73
2022/02/07 05:50:16;;;;;;;;;;;5.50;99.90;;;;;;8380596;28;19931;-74
2022/02/07 05:54:18;;;;;;;;;;;5.60;99.90;;;;;;8376025;28;20382;-74
2022/02/07 05:58:20;;;;;;;;;;;5.50;99.90;;;;;;8391074;28;19925;-74
2022/02/07 06:02:21;;;;;;;;;;;5.50;99.90;;;;;;8381506;28;19930;-73
2022/02/07 06:06:23;;;;;;;;;;;5.50;99.90;;;;;;8387847;28;20292;-74
2022/02/07 06:10:25;;;;;;;;;;;5.50;99.90;;;;;;8385477;28;19924;-73
2022/02/07 06:14:26;;;;;;;;;;;5.40;99.90;;;;;;8387858;28;19972;-73
2022/02/07 06:18:29;;;;;;;;;;;5.40;99.90;;;;;;8385899;28;19968;-73
2022/02/07 06:22:31;;;;;;;;;;;5.50;99.90;;;;;;8392716;28;19963;-74
2022/02/07 06:26:32;;;;;;;;;;;5.50;99.90;;;;;;8388325;28;19980;-73
2022/02/07 06:30:34;;;;;;;;;;;5.50;99.90;;;;;;8388361;28;19972;-73
2022/02/07 06:34:36;;;;;;;;;;;5.50;99.90;;;;;;8384525;28;19929;-74
2022/02/07 06:38:40;;;;;;;;;;;5.60;99.90;;;;;;8375368;28;19935;-74
2022/02/07 06:42:41;;;;;;;;;;;5.60;99.90;;;;;;8396238;28;19924;-73
2022/02/07 06:46:43;;;;;;;;;;;5.60;99.90;;;;;;8392178;28;20356;-73
2022/02/07 06:50:45;;;;;;;;;;;5.60;99.90;;;;;;8374535;28;19978;-74
2022/02/07 06:54:46;;;;;;;;;;;5.50;99.90;;;;;;8392574;28;20035;-74
2022/02/07 06:58:48;;;;;;;;;;;5.40;99.90;;;;;;8392087;28;19933;-74
2022/02/07 07:02:50;;;;;;;;;;;5.30;99.90;;;;;;8384987;28;19959;-74
2022/02/07 07:06:52;;;;;;;;;;;5.30;99.90;;;;;;8391567;28;19935;-73
2022/02/07 07:10:56;;;;;;;;;;;5.20;99.90;;;;;;8394942;28;19924;-73
2022/02/07 07:15:14;;;;;;;;;;;5.20;99.90;;;;;;8392409;28;19983;-73
2022/02/07 07:19:17;;;;;;;;;;;5.20;99.90;;;;;;8385092;28;20008;-73
2022/02/07 07:23:19;;;;;;;;;;;5.20;99.90;;;;;;8389440;28;19925;-73
2022/02/07 07:27:25;;;;;;;;;;;5.20;99.90;;;;;;8393711;28;19928;-73
2022/02/07 07:31:27;;;;;;;;;;;5.20;99.90;;;;;;8368387;28;19963;-74
2022/02/07 07:35:29;;;;;;;;;;;5.20;99.90;;;;;;8389783;28;20022;-74
2022/02/07 07:39:31;;;;;;;;;;;5.20;99.90;;;;;;8382976;28;19979;-74
2022/02/07 07:43:32;;;;;;;;;;;5.30;99.90;;;;;;8388045;28;20097;-74
2022/02/07 07:47:34;;;;;;;;;;;5.30;99.90;;;;;;8392370;28;19933;-74
2022/02/07 08:04:04;;;;;;;;;;;5.50;99.90;;;;;;8380546;28;19963;-74
2022/02/07 08:08:21;;;;;;;;;;;5.60;99.90;;;;;;8385533;28;20312;-74
2022/02/07 08:12:23;;;;;;;;;;;5.60;99.90;;;;;;8388019;28;20008;-73
2022/02/07 08:16:24;;;;;;;;;;;5.60;99.90;;;;;;8389349;28;20038;-73
2022/02/07 08:20:26;;;;;;;;;;;5.70;99.90;;;;;;8383995;28;19928;-74
2022/02/07 08:24:29;;;;;;;;;;;5.80;99.90;;;;;;8393885;28;19925;-73
2022/02/07 08:28:31;;;;;;;;;;;5.90;99.90;;;;;;8379950;28;19928;-73
2022/02/07 08:32:33;;;;;;;;;;;6.10;99.90;;;;;;8375600;28;19971;-73
2022/02/07 08:36:34;;;;;;;;;;;6.10;99.90;;;;;;8372907;28;20015;-73
2022/02/07 08:40:42;;;;;;;;;;;6.20;99.90;;;;;;8386207;28;20000;-73
2022/02/07 08:44:43;;;;;;;;;;;6.20;99.90;;;;;;8387762;28;19990;-73
2022/02/07 08:48:45;;;;;;;;;;;6.30;99.90;;;;;;8387261;28;19964;-73
2022/02/07 08:52:50;;;;;;;;;;;6.40;99.90;;;;;;8392309;28;19967;-73
2022/02/07 08:56:57;;;;;;;;;;;6.50;99.90;;;;;;8361709;28;19935;-74
2022/02/07 09:01:19;;;;;;;;;;;6.60;99.90;;;;;;8383662;28;19967;-74
2022/02/07 09:05:37;;;;;;;;;;;6.70;99.90;;;;;;8388942;28;20382;-74
2022/02/07 09:09:41;;;;;;;;;;;6.80;99.90;;;;;;8366290;28;19940;-74
2022/02/07 09:13:44;;;;;;;;;;;6.90;99.90;;;;;;8365534;28;20043;-73
2022/02/07 09:17:46;;;;;;;;;;;7.00;99.90;;;;;;8392381;28;19956;-74
2022/02/07 09:21:48;;;;;;;;;;;7.20;99.90;;;;;;8393295;28;19932;-73
2022/02/07 09:25:50;;;;;;;;;;;7.30;99.90;;;;;;8390858;28;19932;-74
2022/02/07 09:29:52;;;;;;;;;;;7.40;99.90;;;;;;8387650;28;19978;-74
2022/02/07 09:33:53;;;;;;;;;;;7.50;99.90;;;;;;8386921;28;20008;-73
2022/02/07 09:37:55;;;;;;;;;;;7.50;99.90;;;;;;8386126;28;20300;-73
2022/02/07 09:42:01;;;;;;;;;;;7.40;99.90;;;;;;8370921;28;19971;-73
2022/02/07 09:46:09;;;;;;;;;;;7.40;99.90;;;;;;8373174;28;19984;-73
2022/02/07 09:50:11;;;;;;;;;;;7.60;99.90;;;;;;8382348;28;19990;-74
2022/02/07 09:54:17;;;;;;;;;;;8.00;99.90;;;;;;8373973;28;20389;-74
2022/02/07 09:58:19;;;;;;;;;;;8.30;99.90;;;;;;8385056;28;19933;-73
2022/02/07 10:02:26;;;;;;;;;;;8.40;99.90;;;;;;8360777;28;20012;-73
2022/02/07 10:10:38;;;;;;;;;;;8.50;99.90;;;;;;8387259;28;20372;-73
2022/02/07 10:45:05;;;;;;;;;;;9.00;99.90;;;;;;8379667;28;20403;-73
2022/02/07 10:49:08;;;;;;;;;;;9.00;99.90;;;;;;8359485;28;20019;-73
2022/02/07 10:53:10;;;;;;;;;;;8.80;99.90;;;;;;8380839;28;19920;-74
2022/02/07 10:57:11;;;;;;;;;;;8.50;99.90;;;;;;8371867;28;20007;-73
2022/02/07 11:01:18;;;;;;;;;;;8.30;99.90;;;;;;8364282;28;19920;-73
2022/02/07 11:05:23;;;;;;;;;;;8.70;99.90;;;;;;8377685;28;19920;-73
2022/02/07 11:18:54;;;;;;;;;;;9.30;99.90;;;;;;8344953;28;19967;-74
2022/02/07 11:23:13;;;;;;;;;;;8.70;99.90;;;;;;8387014;28;19967;-73
2022/02/07 11:27:24;;;;;;;;;;;8.80;99.90;;;;;;8388753;28;19920;-73
2022/02/07 11:31:32;;;;;;;;;;;9.50;99.90;;;;;;8362506;28;20378;-73
2022/02/07 11:35:48;;;;;;;;;;;10.10;99.90;;;;;;8385113;28;19924;-73
2022/02/07 11:39:50;;;;;;;;;;;10.40;99.90;;;;;;8390357;28;19920;-73
2022/02/07 11:44:01;;;;;;;;;;;9.70;99.90;;;;;;8392017;28;19920;-73
2022/02/07 11:48:07;;;;;;;;;;;9.50;99.90;;;;;;8389445;28;19924;-73
2022/02/07 11:52:27;;;;;;;;;;;9.60;99.90;;;;;;8393559;28;20007;-73
2022/02/07 11:56:54;;;;;;;;;;;9.40;99.90;;;;;;8370914;28;19952;-73
2022/02/07 12:00:58;;;;;;;;;;;9.10;99.90;;;;;;8367383;28;19935;-73
2022/02/07 12:05:00;;;;;;;;;;;9.50;99.90;;;;;;8386339;28;20282;-73
2022/02/07 12:09:03;;;;;;;;;;;9.50;99.90;;;;;;8388817;28;20380;-73
2022/02/07 12:13:26;;;;;;;;;;;9.70;99.90;;;;;;8397454;28;19935;-73
2022/02/07 12:17:40;;;;;;;;;;;9.90;99.90;;;;;;8393827;28;19946;-73
2022/02/07 12:21:51;;;;;;;;;;;10.10;99.90;;;;;;8394062;28;19955;-73
2022/02/07 12:26:08;;;;;;;;;;;9.90;99.90;;;;;;8392173;28;19970;-73
2022/02/07 12:34:15;;;;;;;;;;;9.70;99.90;;;;;;8388343;28;20392;-73
2022/02/07 12:38:16;;;;;;;;;;;9.80;99.90;;;;;;8370527;28;19928;-73
2022/02/07 12:42:20;;;;;;;;;;;9.70;99.90;;;;;;8383084;28;19968;-73
2022/02/07 12:46:23;;;;;;;;;;;9.90;99.90;;;;;;8386290;28;19920;-74
2022/02/07 12:50:27;;;;;;;;;;;10.20;99.90;;;;;;8389946;28;20340;-73
2022/02/07 12:54:35;;;;;;;;;;;10.00;99.90;;;;;;8389550;28;20282;-73
2022/02/07 12:58:38;;;;;;;;;;;9.80;99.90;;;;;;8384774;28;20447;-73
2022/02/07 13:02:44;;;;;;;;;;;9.90;99.90;;;;;;8384678;28;19920;-74
2022/02/07 13:06:48;;;;;;;;;;;10.50;99.90;;;;;;8382990;28;20027;-73
2022/02/07 13:10:54;;;;;;;;;;;10.60;99.90;;;;;;8372629;28;19924;-73
2022/02/07 13:14:56;;;;;;;;;;;11.20;99.90;;;;;;8387082;28;19976;-73
2022/02/07 13:19:10;;;;;;;;;;;11.70;99.90;;;;;;8386555;28;19972;-73
2022/02/07 13:23:16;;;;;;;;;;;12.00;99.90;;;;;;8390103;28;19967;-73
2022/02/07 13:27:18;;;;;;;;;;;11.40;99.90;;;;;;8372630;28;19967;-73
2022/02/07 13:31:20;;;;;;;;;;;10.70;99.90;;;;;;8389995;28;19964;-73
2022/02/07 13:35:22;;;;;;;;;;;10.30;99.90;;;;;;8373173;28;19999;-73
2022/02/07 13:39:23;;;;;;;;;;;10.00;99.90;;;;;;8368636;28;19920;-73
2022/02/07 13:43:27;;;;;;;;;;;9.80;99.90;;;;;;8389686;28;19960;-73
2022/02/07 13:47:29;;;;;;;;;;;9.60;99.90;;;;;;8393798;28;19966;-73
2022/02/07 13:51:31;;;;;;;;;;;9.30;99.90;;;;;;8396872;28;19928;-74
2022/02/07 13:55:33;;;;;;;;;;;9.30;99.90;;;;;;8365409;28;20019;-74
2022/02/07 13:59:38;;;;;;;;;;;9.20;99.90;;;;;;8375222;28;19925;-73
2022/02/07 14:03:42;;;;;;;;;;;9.10;99.90;;;;;;8393692;28;20442;-73
2022/02/07 14:07:53;;;;;;;;;;;9.10;99.90;;;;;;8378395;28;19928;-73
2022/02/07 14:11:58;;;;;;;;;;;9.30;99.90;;;;;;8382831;28;19964;-73
2022/02/07 14:16:00;;;;;;;;;;;9.40;99.90;;;;;;8384280;28;19920;-73
2022/02/07 14:20:01;;;;;;;;;;;9.40;99.90;;;;;;8388837;28;19920;-73
2022/02/07 14:24:03;;;;;;;;;;;9.50;99.90;;;;;;8388882;28;19967;-73
2022/02/07 14:28:25;;;;;;;;;;;9.50;99.90;;;;;;8376155;28;20294;-73
2022/02/07 14:32:26;;;;;;;;;;;9.60;99.90;;;;;;8383996;28;20299;-73
2022/02/07 14:36:30;;;;;;;;;;;9.60;99.90;;;;;;8381525;28;19924;-73
2022/02/07 14:40:36;;;;;;;;;;;9.60;99.90;;;;;;8384393;28;19924;-73
2022/02/07 14:44:57;;;;;;;;;;;9.60;99.90;;;;;;8386654;28;19958;-73
2022/02/07 14:48:59;;;;;;;;;;;9.90;99.90;;;;;;8383177;28;19920;-73
2022/02/07 14:53:02;;;;;;;;;;;10.80;99.90;;;;;;8385810;28;19920;-73
2022/02/07 14:57:04;;;;;;;;;;;11.80;99.90;;;;;;8384702;28;19964;-73
2022/02/07 15:01:05;;;;;;;;;;;12.40;99.90;;;;;;8387457;28;20300;-74
2022/02/07 15:05:08;;;;;;;;;;;12.90;99.90;;;;;;8374719;28;19997;-73
2022/02/07 15:09:09;;;;;;;;;;;13.00;99.90;;;;;;8388925;28;19959;-73
2022/02/07 15:13:11;;;;;;;;;;;13.30;99.90;;;;;;8371728;28;19926;-73
2022/02/07 15:17:12;;;;;;;;;;;13.20;99.90;;;;;;8385417;28;20024;-73
2022/02/07 15:21:14;;;;;;;;;;;12.90;99.90;;;;;;8389869;28;20339;-73
2022/02/07 15:25:19;;;;;;;;;;;12.80;99.90;;;;;;8387701;28;20386;-73
2022/02/07 15:29:20;;;;;;;;;;;12.20;99.90;;;;;;8374043;28;19970;-73
2022/02/07 15:33:30;;;;;;;;;;;12.00;99.90;;;;;;8394079;28;20328;-73
2022/02/07 15:37:32;;;;;;;;;;;11.80;99.90;;;;;;8384676;28;19964;-73
2022/02/07 15:41:34;;;;;;;;;;;11.30;99.90;;;;;;8374614;28;20301;-73
2022/02/07 15:45:36;;;;;;;;;;;11.10;99.90;;;;;;8375934;28;19983;-73
2022/02/07 15:49:38;;;;;;;;;;;10.70;99.90;;;;;;8387199;28;20332;-73
2022/02/07 15:53:40;;;;;;;;;;;10.20;99.90;;;;;;8380045;28;19960;-73
2022/02/07 15:57:43;;;;;;;;;;;9.80;99.90;;;;;;8359165;28;20032;-73
2022/02/07 16:01:45;;;;;;;;;;;9.80;99.90;;;;;;8339093;28;19956;-73
2022/02/07 16:05:47;;;;;;;;;;;9.70;99.90;;;;;;8357284;28;19952;-73
2022/02/07 16:09:48;;;;;;;;;;;9.60;99.90;;;;;;8356868;28;19929;-73
2022/02/07 16:13:53;;;;;;;;;;;9.60;99.90;;;;;;8351172;28;19960;-73
2022/02/07 16:17:55;;;;;;;;;;;9.60;99.90;;;;;;8348103;28;20031;-73
2022/02/07 16:21:57;;;;;;;;;;;9.40;99.90;;;;;;8348541;28;19928;-73
2022/02/07 16:26:00;;;;;;;;;;;9.30;99.90;;;;;;8355808;28;19929;-73
2022/02/07 16:30:02;;;;;;;;;;;9.20;99.90;;;;;;8341872;28;20043;-73
2022/02/07 16:34:03;;;;;;;;;;;8.90;99.90;;;;;;8356900;28;20309;-73
2022/02/07 16:38:08;;;;;;;;;;;8.70;99.90;;;;;;8348616;28;19943;-73
2022/02/07 16:42:11;;;;;;;;;;;8.40;99.90;;;;;;8359446;28;19928;-73
2022/02/07 16:50:14;;;;;;;;;;;8.00;99.90;;;;;;8356422;28;19939;-73
2022/02/07 16:54:17;;;;;;;;;;;7.80;99.90;;;;;;8357450;28;19967;-73
2022/02/07 16:58:18;;;;;;;;;;;7.70;99.90;;;;;;8345978;28;20015;-73
2022/02/07 17:02:24;;;;;;;;;;;7.60;99.90;;;;;;8357574;28;20018;-73
2022/02/07 17:06:27;;;;;;;;;;;7.50;99.90;;;;;;8357221;28;20011;-73
2022/02/07 17:10:29;;;;;;;;;;;7.50;99.90;;;;;;8356843;28;20028;-73
2022/02/07 17:14:31;;;;;;;;;;;7.40;99.90;;;;;;8339820;28;19920;-73
2022/02/07 17:18:32;;;;;;;;;;;7.30;99.90;;;;;;8358757;28;20366;-73
2022/02/07 17:22:34;;;;;;;;;;;7.20;99.90;;;;;;8337788;28;19927;-73
2022/02/07 17:26:36;;;;;;;;;;;7.10;99.90;;;;;;8356002;28;19959;-73
2022/02/07 17:30:37;;;;;;;;;;;7.10;99.90;;;;;;8355417;28;19960;-73
2022/02/07 17:34:39;;;;;;;;;;;7.00;99.90;;;;;;8356331;28;20062;-73
2022/02/07 17:38:40;;;;;;;;;;;7.00;99.90;;;;;;8342250;28;19943;-73
2022/02/07 17:42:43;;;;;;;;;;;7.00;99.90;;;;;;8360960;28;20036;-73
2022/02/07 17:46:47;;;;;;;;;;;6.90;99.90;;;;;;8340900;28;19925;-73
2022/02/07 17:50:52;;;;;;;;;;;6.80;99.90;;;;;;8354440;28;19979;-72
2022/02/07 17:54:54;;;;;;;;;;;6.80;99.90;;;;;;8357414;28;20012;-72
2022/02/07 17:58:55;;;;;;;;;;;6.80;99.90;;;;;;8357748;28;20012;-73
2022/02/07 18:02:57;;;;;;;;;;;6.70;99.90;;;;;;8338975;28;20439;-73
2022/02/07 18:07:02;;;;;;;;;;;6.60;99.90;;;;;;8341423;28;20006;-73
2022/02/07 18:11:05;;;;;;;;;;;6.60;99.90;;;;;;8338923;28;20069;-73
2022/02/07 18:15:07;;;;;;;;;;;6.50;99.90;;;;;;8353689;28;20020;-73
2022/02/07 18:19:13;;;;;;;;;;;6.40;99.90;;;;;;8359787;28;19968;-73
2022/02/07 18:23:16;;;;;;;;;;;6.40;99.90;;;;;;8339419;28;20019;-73
2022/02/07 18:27:17;;;;;;;;;;;6.30;99.90;;;;;;8353905;28;19968;-73
2022/02/07 18:31:19;;;;;;;;;;;6.30;99.90;;;;;;8357348;28;20019;-73
2022/02/07 18:35:21;;;;;;;;;;;6.30;99.90;;;;;;8357189;28;19979;-73
2022/02/07 18:39:23;;;;;;;;;;;6.20;99.90;;;;;;8361085;28;20300;-73
2022/02/07 18:43:27;;;;;;;;;;;6.30;99.90;;;;;;8359090;28;19979;-73
2022/02/07 18:47:28;;;;;;;;;;;6.30;99.90;;;;;;8353395;28;19964;-73
2022/02/07 18:51:30;;;;;;;;;;;6.30;99.90;;;;;;8353571;28;20400;-73
2022/02/07 18:55:31;;;;;;;;;;;6.20;99.90;;;;;;8364274;28;20016;-73
2022/02/07 18:59:36;;;;;;;;;;;6.20;99.90;;;;;;8361057;28;20010;-73
2022/02/07 19:03:44;;;;;;;;;;;6.20;99.90;;;;;;8366301;28;20284;-73
2022/02/07 19:07:46;;;;;;;;;;;6.20;99.90;;;;;;8360241;28;20349;-73
2022/02/07 19:11:48;;;;;;;;;;;6.20;99.90;;;;;;8363287;28;19929;-73
2022/02/07 19:15:50;;;;;;;;;;;6.30;99.90;;;;;;8358777;28;19974;-73
2022/02/07 19:19:59;;;;;;;;;;;6.20;99.90;;;;;;8361680;28;20288;-73
2022/02/07 19:24:07;;;;;;;;;;;6.20;99.90;;;;;;8359775;28;19967;-73
2022/02/07 19:28:15;;;;;;;;;;;6.20;99.90;;;;;;8358731;28;19956;-73
2022/02/07 19:32:21;;;;;;;;;;;6.20;99.90;;;;;;8343890;28;19967;-72
2022/02/07 19:36:24;;;;;;;;;;;6.10;99.90;;;;;;8366069;28;19931;-73
2022/02/07 19:40:28;;;;;;;;;;;6.10;99.90;;;;;;8367870;28;19971;-72
2022/02/07 19:44:33;;;;;;;;;;;6.00;99.90;;;;;;8368354;28;19928;-73
2022/02/07 19:48:34;;;;;;;;;;;6.00;99.90;;;;;;8364779;28;19964;-73
2022/02/07 19:52:37;;;;;;;;;;;6.00;99.90;;;;;;8367525;28;19943;-73
2022/02/07 19:56:38;;;;;;;;;;;5.90;99.90;;;;;;8368848;28;20018;-73
2022/02/07 20:00:42;;;;;;;;;;;5.90;99.90;;;;;;8368842;28;20018;-73
2022/02/07 20:04:55;;;;;;;;;;;5.80;99.90;;;;;;8371470;28;20649;-73
2022/02/07 20:08:58;;;;;;;;;;;5.80;99.90;;;;;;8368357;28;20054;-73
2022/02/07 20:13:00;;;;;;;;;;;5.80;99.90;;;;;;8352382;28;21528;-73
2022/02/07 20:17:02;;;;;;;;;;;5.90;99.90;;;;;;8368021;28;20007;-73
2022/02/07 20:21:03;;;;;;;;;;;5.90;99.90;;;;;;8367908;28;19926;-73
2022/02/07 20:25:05;;;;;;;;;;;5.90;99.90;;;;;;8362531;28;20359;-73
2022/02/07 20:29:11;;;;;;;;;;;5.90;99.90;;;;;;8364837;28;20024;-73
2022/02/07 20:33:17;;;;;;;;;;;5.90;99.90;;;;;;8365804;28;20954;-73
2022/02/07 20:37:19;;;;;;;;;;;6.00;99.90;;;;;;8366149;28;19981;-73
2022/02/07 20:41:20;;;;;;;;;;;6.00;99.90;;;;;;8361556;28;19924;-73
2022/02/07 20:45:22;;;;;;;;;;;6.00;99.90;;;;;;8365112;28;20611;-73
2022/02/07 20:49:30;;;;;;;;;;;6.00;99.90;;;;;;8362168;28;19978;-73
2022/02/07 20:53:31;;;;;;;;;;;6.00;99.90;;;;;;8365500;28;20245;-73
2022/02/07 20:57:33;;;;;;;;;;;6.00;99.90;;;;;;8378932;28;19976;-74
2022/02/07 21:01:55;;;;;;;;;;;6.10;99.90;;;;;;8356113;28;19920;-72
2022/02/07 21:05:58;;;;;;;;;;;6.10;99.90;;;;;;8362028;28;20571;-73
2022/02/07 21:09:59;;;;;;;;;;;6.10;99.90;;;;;;8366262;28;20264;-73
2022/02/07 21:14:02;;;;;;;;;;;6.10;99.90;;;;;;8364566;28;20007;-73
2022/02/07 21:18:04;;;;;;;;;;;6.10;99.90;;;;;;8367025;28;19982;-73
2022/02/07 21:22:09;;;;;;;;;;;6.10;99.90;;;;;;8353747;28;20023;-73
2022/02/07 21:26:11;;;;;;;;;;;6.10;99.90;;;;;;8364745;28;19938;-73
2022/02/07 21:30:13;;;;;;;;;;;6.10;99.90;;;;;;8367750;28;19989;-73
2022/02/07 21:34:16;;;;;;;;;;;6.20;99.90;;;;;;8362703;28;20311;-73
2022/02/07 21:38:17;;;;;;;;;;;6.20;99.90;;;;;;8355012;28;19968;-73
2022/02/07 21:42:19;;;;;;;;;;;6.20;99.90;;;;;;8365209;28;20276;-72
2022/02/07 21:46:21;;;;;;;;;;;6.20;99.90;;;;;;8347411;28;19964;-73
2022/02/07 21:50:23;;;;;;;;;;;6.20;99.90;;;;;;8353645;28;19927;-73
2022/02/07 21:54:25;;;;;;;;;;;6.20;99.90;;;;;;8367485;28;20343;-73
2022/02/07 21:58:27;;;;;;;;;;;6.20;99.90;;;;;;8360074;28;19925;-73
2022/02/07 22:02:30;;;;;;;;;;;6.30;99.90;;;;;;8371804;28;20608;-73
2022/02/07 22:06:32;;;;;;;;;;;6.30;99.90;;;;;;8381912;28;19940;-73
2022/02/07 22:10:36;;;;;;;;;;;6.30;99.90;;;;;;8390725;28;19959;-73
2022/02/07 22:14:52;;;;;;;;;;;6.30;99.90;;;;;;8372673;28;20336;-73
2022/02/07 22:18:54;;;;;;;;;;;6.40;99.90;;;;;;8386637;28;20325;-73
2022/02/07 22:22:56;;;;;;;;;;;6.40;99.90;;;;;;8394008;28;19920;-73
2022/02/07 22:26:57;;;;;;;;;;;6.40;99.90;;;;;;8390439;28;19963;-73
2022/02/07 22:31:10;;;;;;;;;;;6.50;99.90;;;;;;8391124;28;19939;-73
2022/02/07 22:35:14;;;;;;;;;;;6.50;99.90;;;;;;8371436;28;19925;-73
2022/02/07 22:39:16;;;;;;;;;;;6.60;99.90;;;;;;8388398;28;20045;-73
2022/02/07 22:43:18;;;;;;;;;;;6.60;99.90;;;;;;8386359;28;20380;-73
2022/02/07 22:47:19;;;;;;;;;;;6.70;99.90;;;;;;8371504;28;20337;-73
2022/02/07 22:51:23;;;;;;;;;;;6.70;99.90;;;;;;8394551;28;20030;-73
2022/02/07 22:55:25;;;;;;;;;;;6.70;99.90;;;;;;8387368;28;19970;-73
2022/02/07 22:59:27;;;;;;;;;;;6.80;99.90;;;;;;8369492;28;19921;-73
2022/02/07 23:03:34;;;;;;;;;;;6.80;99.90;;;;;;8385710;28;20015;-73
2022/02/07 23:07:42;;;;;;;;;;;6.90;99.90;;;;;;8395907;28;19964;-73
2022/02/07 23:11:53;;;;;;;;;;;6.90;99.90;;;;;;8378850;28;20019;-73
2022/02/07 23:21:10;;;;;;;;;;;7.00;99.90;;;;;;8399600;28;19961;-73
2022/02/07 23:41:56;;;;;;;;;;;6.90;99.90;;;;;;8386439;28;20696;-73
2022/02/07 23:46:03;;;;;;;;;;;6.90;99.90;;;;;;8392680;28;19924;-73
2022/02/07 23:50:16;;;;;;;;;;;6.80;99.90;;;;;;8393666;28;20024;-73
2022/02/07 23:58:35;;;;;;;;;;;6.80;99.90;;;;;;8393514;28;19920;-73
